CPX221 Details

Departure: Sacramento International Airport (KSMF)
Arrival: March Air Reserve Base (KRIV)
Route: FTHIL2 FRA EHF J65 PMD MARCH4


Current Weather Information
KSMF 212153Z 24013G20KT 10SM SCT049 BKN065 19/08 A2980 RMK AO2 SLP090 MDT CU W T01940078
KRIV 212158Z AUTO 26009G17KT 10SM SCT049 BKN060 18/06 A2983 RMK AO2 SLP097 T01830055